Terminal Aerodrome Forecast
Issued by NWS Quad Cities IA IL

Home | Current Version | Previous Version | Text Only | Print | Product List | Glossary On
Versions: 1 2 3 4 5 6 7 8 9 10 11 12 13 14 15 16
467
FTUS43 KDVN 201616 AAC
TAFMLI
TAF AMD
KMLI 201616Z 2016/2112 15014KT 4SM BR OVC080
     FM202200 17013KT 5SM SHRA VCTS BKN025CB
     FM210300 22010KT 4SM -RA BR BKN010
     FM210600 23008KT 6SM BR BKN050=

USA.gov is the U.S. government's official web portal to all federal, state and local government web resources and services.